createdAt,value
2022-09-20T00:00:48.913Z,94985.91
2022-09-20T00:03:31.952Z,94988.69
2022-09-20T00:06:16.777Z,94987.31
2022-09-20T00:09:01.465Z,94996.75
2022-09-20T00:11:45.369Z,94996.59
2022-09-20T00:14:28.398Z,94987.50
2022-09-20T00:17:12.776Z,94980.28
2022-09-20T00:19:55.835Z,94993.38
2022-09-20T00:22:38.856Z,94990.66
2022-09-20T00:25:22.527Z,94998.84
2022-09-20T00:28:05.932Z,94999.13
2022-09-20T00:30:49.288Z,94994.59
2022-09-20T00:33:47.517Z,94994.66
2022-09-20T00:36:31.222Z,94997.38
2022-09-20T00:39:15.848Z,94989.47
2022-09-20T00:41:58.867Z,94995.47
2022-09-20T00:44:49.274Z,94996.06
2022-09-20T00:47:40.286Z,95006.88
2022-09-20T00:50:34.652Z,95007.09
2022-09-20T00:53:22.078Z,95011.22
2022-09-20T00:56:10.535Z,95008.19
2022-09-20T00:59:01.673Z,95004.53
2022-09-20T01:01:47.541Z,95003.16
2022-09-20T01:04:31.255Z,95007.97
2022-09-20T01:07:22.348Z,95006.16
2022-09-20T01:10:05.615Z,94993.00
2022-09-20T01:12:50.125Z,94998.25
2022-09-20T01:15:35.398Z,94993.19
2022-09-20T01:18:21.191Z,94998.38
2022-09-20T01:21:05.987Z,94998.06
2022-09-20T01:23:57.749Z,94989.47
2022-09-20T01:27:03.122Z,94988.19
2022-09-20T01:30:03.308Z,94992.53
2022-09-20T01:32:59.158Z,94995.25
2022-09-20T01:35:45.662Z,94987.31
2022-09-20T01:38:37.316Z,94983.00
2022-09-20T01:41:29.376Z,94987.28
2022-09-20T01:44:19.855Z,94990.28
2022-09-20T01:47:15.020Z,94987.94
2022-09-20T01:50:07.497Z,94996.72
2022-09-20T01:53:24.147Z,95000.78
2022-09-20T01:56:34.987Z,94998.44
2022-09-20T01:59:49.412Z,94998.56
2022-09-20T02:03:01.720Z,94995.78
2022-09-20T02:06:08.952Z,94998.63
2022-09-20T02:09:13.830Z,94997.88
2022-09-20T02:12:32.835Z,94979.75
2022-09-20T02:15:36.492Z,94982.56
2022-09-20T02:18:42.438Z,94976.84
2022-09-20T02:21:35.964Z,94975.59
2022-09-20T02:24:29.586Z,94976.09
2022-09-20T02:27:25.035Z,94972.56
2022-09-20T02:30:21.294Z,94975.53
2022-09-20T02:33:15.763Z,94975.34
2022-09-20T02:36:18.008Z,94978.53
2022-09-20T02:39:09.004Z,94986.69
2022-09-20T02:41:58.282Z,94987.13
2022-09-20T02:45:05.104Z,94988.13
2022-09-20T02:47:49.334Z,94980.19
2022-09-20T02:50:42.432Z,94987.16
2022-09-20T02:53:41.162Z,94989.16
2022-09-20T02:56:32.831Z,94990.00
2022-09-20T02:59:30.222Z,94988.19
2022-09-20T03:02:23.777Z,94987.81
2022-09-20T03:05:15.570Z,94996.19
2022-09-20T03:08:16.442Z,94999.97
2022-09-20T03:11:15.946Z,94995.06
2022-09-20T03:14:11.721Z,94991.47
2022-09-20T03:17:12.845Z,95001.22
2022-09-20T03:20:08.180Z,95002.63
2022-09-20T03:22:59.461Z,95012.16
2022-09-20T03:25:56.152Z,95017.78
2022-09-20T03:28:55.364Z,95017.38
2022-09-20T03:32:00.500Z,95013.00
2022-09-20T03:34:54.026Z,95018.56
2022-09-20T03:38:00.373Z,95026.09
2022-09-20T03:41:08.814Z,95020.13
2022-09-20T03:44:15.783Z,94988.75
2022-09-20T03:47:09.426Z,95020.94
2022-09-20T03:50:17.652Z,95019.16
2022-09-20T03:53:35.442Z,95017.81
2022-09-20T03:56:41.507Z,95013.41
2022-09-20T03:59:45.703Z,95006.25
2022-09-20T04:02:54.666Z,95014.19
2022-09-20T04:05:50.934Z,95021.78
2022-09-20T04:08:52.981Z,95029.72
2022-09-20T04:11:45.094Z,95030.91
2022-09-20T04:14:36.290Z,95034.09
2022-09-20T04:17:40.048Z,95039.63
2022-09-20T04:20:29.854Z,95039.44
2022-09-20T04:23:25.447Z,95045.63
2022-09-20T04:26:09.222Z,95042.41
2022-09-20T04:28:58.547Z,95042.03
2022-09-20T04:31:54.113Z,95052.34
2022-09-20T04:35:01.635Z,95054.31
2022-09-20T04:37:45.951Z,95050.75
2022-09-20T04:40:51.354Z,95057.31
2022-09-20T04:44:12.414Z,95067.84
2022-09-20T04:47:31.217Z,95074.56
2022-09-20T04:50:40.766Z,95064.25
2022-09-20T04:53:52.335Z,95074.97
2022-09-20T04:56:52.322Z,95068.63
2022-09-20T04:59:56.231Z,95075.56
2022-09-20T05:03:16.750Z,95065.81
2022-09-20T05:06:31.148Z,95068.38
2022-09-20T05:09:42.448Z,95071.88
2022-09-20T05:12:55.938Z,95067.25
2022-09-20T05:15:45.576Z,95068.81
2022-09-20T05:19:04.066Z,95086.91
2022-09-20T05:22:13.050Z,95078.28
2022-09-20T05:25:19.865Z,95076.97
2022-09-20T05:28:11.490Z,95083.28
2022-09-20T05:31:00.288Z,95085.41
2022-09-20T05:33:53.275Z,95077.56
2022-09-20T05:36:45.402Z,95080.13
2022-09-20T05:39:39.598Z,95080.84
2022-09-20T05:42:34.968Z,95084.78
2022-09-20T05:45:32.356Z,95071.91
2022-09-20T05:48:21.438Z,95073.59
2022-09-20T05:51:15.344Z,95078.09
2022-09-20T05:54:29.764Z,95078.03
2022-09-20T05:57:23.686Z,95076.22
2022-09-20T06:00:13.482Z,95074.72
2022-09-20T06:03:08.044Z,95075.47
2022-09-20T06:06:01.116Z,95067.03
2022-09-20T06:09:12.150Z,95072.16
2022-09-20T06:12:15.319Z,95065.56
2022-09-20T06:15:04.881Z,95061.53
2022-09-20T06:17:57.414Z,95078.16
2022-09-20T06:20:51.547Z,95074.38
2022-09-20T06:23:36.746Z,95069.88
2022-09-20T06:26:25.220Z,95066.69
2022-09-20T06:29:15.720Z,95075.28
2022-09-20T06:31:58.707Z,95072.84
2022-09-20T06:34:41.717Z,95076.00
2022-09-20T06:37:59.448Z,95078.69
2022-09-20T06:41:05.367Z,95067.47
2022-09-20T06:43:50.628Z,95073.25
2022-09-20T06:46:36.200Z,95077.06
2022-09-20T06:49:19.205Z,95079.28
2022-09-20T06:52:03.108Z,95091.69
2022-09-20T06:54:47.288Z,95085.34
2022-09-20T06:57:35.971Z,95082.06
2022-09-20T07:00:20.763Z,95094.84
2022-09-20T07:03:04.092Z,95095.34
2022-09-20T07:05:48.068Z,95093.69
2022-09-20T07:08:31.293Z,95088.69
2022-09-20T07:11:16.801Z,95085.69
2022-09-20T07:13:59.820Z,95091.13
2022-09-20T07:16:44.567Z,95091.63
2022-09-20T07:19:27.636Z,95098.03
2022-09-20T07:22:11.095Z,95107.13
2022-09-20T07:24:54.112Z,95096.28
2022-09-20T07:27:37.107Z,95105.34
2022-09-20T07:30:21.572Z,95094.09
2022-09-20T07:33:06.018Z,95101.00
2022-09-20T07:35:49.935Z,95101.13
2022-09-20T07:38:32.983Z,95090.00
2022-09-20T07:41:17.076Z,95103.38
2022-09-20T07:44:20.177Z,95109.41
2022-09-20T07:47:03.301Z,95093.03
2022-09-20T07:49:47.701Z,95095.13
2022-09-20T07:52:30.866Z,95089.72
2022-09-20T07:55:13.854Z,95094.34
2022-09-20T07:57:57.300Z,95096.53
2022-09-20T08:00:40.314Z,95095.69
2022-09-20T08:03:23.698Z,95091.09
2022-09-20T08:06:10.564Z,95099.81
2022-09-20T08:08:54.524Z,95087.75
2022-09-20T08:11:39.611Z,95090.69
2022-09-20T08:14:22.961Z,95083.91
2022-09-20T08:17:06.251Z,95075.06
2022-09-20T08:19:49.943Z,95086.34
2022-09-20T08:22:34.898Z,95084.81
2022-09-20T08:25:18.409Z,95097.16
2022-09-20T08:28:01.428Z,95099.50
2022-09-20T08:30:44.473Z,95090.22
2022-09-20T08:33:28.617Z,95083.94
2022-09-20T08:36:14.495Z,95079.00
2022-09-20T08:42:14.013Z,95074.25
2022-09-20T08:45:01.001Z,95075.31
2022-09-20T08:47:53.268Z,95068.03
2022-09-20T08:50:38.664Z,95058.16
2022-09-20T08:53:21.715Z,95058.41
2022-09-20T08:56:09.238Z,95054.97
2022-09-20T08:58:53.331Z,95058.72
2022-09-20T09:01:37.437Z,95047.38
2022-09-20T09:04:23.436Z,95049.94
2022-09-20T09:07:08.330Z,95045.03
2022-09-20T09:09:55.372Z,95043.31
2022-09-20T09:12:40.130Z,95036.56
2022-09-20T09:15:29.378Z,95040.31
2022-09-20T09:18:13.116Z,95035.22
2022-09-20T09:20:58.238Z,95024.97
2022-09-20T09:23:43.434Z,95032.09
2022-09-20T09:26:28.136Z,95026.81
2022-09-20T09:29:18.687Z,95018.97
2022-09-20T09:32:23.972Z,95013.91
2022-09-20T09:35:25.469Z,95009.47
2022-09-20T09:38:19.100Z,95011.03
2022-09-20T09:41:03.806Z,95008.94
2022-09-20T09:44:00.303Z,95013.69
2022-09-20T09:46:44.756Z,94998.84
2022-09-20T09:49:29.423Z,95001.19
2022-09-20T09:52:15.186Z,95010.50
2022-09-20T09:55:04.532Z,95021.44
2022-09-20T09:57:57.154Z,95016.94
2022-09-20T10:00:46.519Z,95009.31
2022-09-20T10:03:42.866Z,95009.16
2022-09-20T10:06:30.310Z,95006.06
2022-09-20T10:09:33.964Z,94999.19
2022-09-20T10:12:27.108Z,94990.13
2022-09-20T10:15:26.923Z,95006.50
2022-09-20T10:18:25.111Z,95003.47
2022-09-20T10:21:19.870Z,95004.47
2022-09-20T10:24:14.586Z,95000.53
2022-09-20T10:27:23.694Z,94998.81
2022-09-20T10:30:13.463Z,94990.50
2022-09-20T10:33:03.551Z,94990.19
2022-09-20T10:36:15.747Z,94989.00
2022-09-20T10:39:04.973Z,94985.63
2022-09-20T10:42:13.681Z,94987.16
2022-09-20T10:45:11.849Z,94991.47
2022-09-20T10:48:04.744Z,94981.06
2022-09-20T10:50:53.107Z,94982.81
2022-09-20T10:53:45.455Z,94983.53
2022-09-20T10:56:33.112Z,94970.88
2022-09-20T10:59:33.467Z,94969.72
2022-09-20T11:02:34.822Z,94970.91
2022-09-20T11:05:29.531Z,94979.91
2022-09-20T11:08:15.174Z,94972.00
2022-09-20T11:11:06.565Z,94972.69
2022-09-20T11:13:59.636Z,94970.97
2022-09-20T11:16:51.757Z,94977.00
2022-09-20T11:19:48.917Z,94958.91
2022-09-20T11:22:40.210Z,94964.25
2022-09-20T11:25:32.229Z,94967.16
2022-09-20T11:28:20.956Z,94957.13
2022-09-20T11:31:08.806Z,94971.47
2022-09-20T11:33:58.739Z,94946.66
2022-09-20T11:36:52.333Z,94956.72
2022-09-20T11:39:44.104Z,94961.06
2022-09-20T11:42:32.230Z,94959.00
2022-09-20T11:45:17.034Z,94948.50
2022-09-20T11:48:03.210Z,94959.03
2022-09-20T11:51:08.908Z,94949.16
2022-09-20T11:54:22.995Z,94940.56
2022-09-20T11:57:09.184Z,94950.56
2022-09-20T11:59:55.855Z,94936.72
2022-09-20T12:02:47.704Z,94941.47
2022-09-20T12:05:35.428Z,94939.97
2022-09-20T12:08:23.838Z,94938.72
2022-09-20T12:11:10.330Z,94935.84
2022-09-20T12:13:56.601Z,94927.47
2022-09-20T12:16:42.689Z,94931.97
2022-09-20T12:19:40.195Z,94921.75
2022-09-20T12:22:30.535Z,94915.66
2022-09-20T12:25:38.181Z,94926.84
2022-09-20T12:28:34.509Z,94918.44
2022-09-20T12:31:39.285Z,94908.19
2022-09-20T12:34:36.118Z,94905.38
2022-09-20T12:37:26.518Z,94921.66
2022-09-20T12:40:19.262Z,94917.47
2022-09-20T12:43:02.698Z,94917.44
2022-09-20T12:45:54.362Z,94915.91
2022-09-20T12:48:39.590Z,94911.94
2022-09-20T12:51:52.031Z,94916.69
2022-09-20T12:54:52.542Z,94913.03
2022-09-20T12:57:35.723Z,94909.34
2022-09-20T13:00:34.337Z,94907.78
2022-09-20T13:03:27.306Z,94909.59
2022-09-20T13:06:25.897Z,94909.09
2022-09-20T13:09:10.872Z,94902.00
2022-09-20T13:11:58.117Z,94916.97
2022-09-20T13:14:42.019Z,94913.31
2022-09-20T13:17:30.953Z,94908.06
2022-09-20T13:20:22.071Z,94914.88
2022-09-20T13:23:08.627Z,94903.34
2022-09-20T13:25:51.757Z,94908.31
2022-09-20T13:28:44.285Z,94905.69
2022-09-20T13:31:33.738Z,94905.44
2022-09-20T13:34:22.138Z,94910.63
2022-09-20T13:37:05.225Z,94900.91
2022-09-20T13:39:49.002Z,94899.06
2022-09-20T13:42:35.770Z,94902.25
2022-09-20T13:45:22.979Z,94905.66
2022-09-20T13:48:10.253Z,94898.22
2022-09-20T13:50:53.919Z,94901.66
2022-09-20T13:53:41.894Z,94905.50
2022-09-20T13:56:29.949Z,94893.63
2022-09-20T13:59:19.326Z,94892.59
2022-09-20T14:02:05.170Z,94892.41
2022-09-20T14:04:50.538Z,94897.59
2022-09-20T14:07:36.835Z,94894.97
2022-09-20T14:10:35.977Z,94893.53
2022-09-20T14:13:20.478Z,94896.69
2022-09-20T14:16:04.359Z,94892.25
2022-09-20T14:18:50.644Z,94895.53
2022-09-20T14:21:34.743Z,94889.25
2022-09-20T14:24:32.005Z,94888.13
2022-09-20T14:27:19.815Z,94880.84
2022-09-20T14:30:03.959Z,94886.78
2022-09-20T14:32:54.295Z,94892.28
2022-09-20T14:35:38.819Z,94888.06
2022-09-20T14:38:26.397Z,94888.69
2022-09-20T14:41:09.472Z,94887.63
2022-09-20T14:43:56.343Z,94896.25
2022-09-20T14:46:39.554Z,94896.47
2022-09-20T14:49:33.993Z,94898.06
2022-09-20T14:52:43.806Z,94896.75
2022-09-20T14:55:28.595Z,94907.16
2022-09-20T14:58:13.501Z,94913.03
2022-09-20T15:00:59.107Z,94913.22
2022-09-20T15:03:43.281Z,94915.22
2022-09-20T15:06:26.752Z,94911.34
2022-09-20T15:09:13.756Z,94911.78
2022-09-20T15:12:05.359Z,94916.41
2022-09-20T15:14:49.436Z,94909.09
2022-09-20T15:17:32.542Z,94908.31
2022-09-20T15:20:23.967Z,94910.91
2022-09-20T15:23:08.653Z,94911.06
2022-09-20T15:25:56.547Z,94919.81
2022-09-20T15:28:40.072Z,94912.72
2022-09-20T15:31:23.133Z,94918.38
2022-09-20T15:34:07.240Z,94909.75
2022-09-20T15:36:50.858Z,94914.94
2022-09-20T15:39:34.341Z,94913.84
2022-09-20T15:42:21.589Z,94913.78
2022-09-20T15:45:06.985Z,94915.31
2022-09-20T15:47:50.102Z,94913.13
2022-09-20T15:50:33.151Z,94912.63
2022-09-20T15:53:16.169Z,94915.56
2022-09-20T15:56:01.893Z,94917.63
2022-09-20T15:58:48.323Z,94912.66
2022-09-20T16:01:33.215Z,94922.75
2022-09-20T16:04:18.685Z,94923.59
2022-09-20T16:07:03.805Z,94922.94
2022-09-20T16:09:46.863Z,94927.81
2022-09-20T16:12:29.889Z,94922.97
2022-09-20T16:15:14.393Z,94927.84
2022-09-20T16:18:14.759Z,94935.00
2022-09-20T16:21:07.575Z,94927.41
2022-09-20T16:23:52.847Z,94934.38
2022-09-20T16:26:37.773Z,94941.69
2022-09-20T16:29:22.160Z,94931.13
2022-09-20T16:32:06.626Z,94936.22
2022-09-20T16:34:51.141Z,94940.81
2022-09-20T16:37:35.483Z,94944.59
2022-09-20T16:40:18.647Z,94947.75
2022-09-20T16:43:01.735Z,94944.69
2022-09-20T16:45:44.833Z,94950.06
2022-09-20T16:48:30.515Z,94955.22
2022-09-20T16:51:13.565Z,94949.34
2022-09-20T16:53:56.937Z,94960.38
2022-09-20T16:56:41.601Z,94953.44
2022-09-20T16:59:24.616Z,94967.06
2022-09-20T17:02:07.987Z,94969.47
2022-09-20T17:04:52.509Z,94972.03
2022-09-20T17:07:35.715Z,94972.28
2022-09-20T17:10:20.711Z,94973.66
2022-09-20T17:13:04.443Z,94970.50
2022-09-20T17:15:50.044Z,94975.81
2022-09-20T17:18:33.521Z,94976.97
2022-09-20T17:21:18.483Z,94978.09
2022-09-20T17:24:04.253Z,94969.38
2022-09-20T17:26:47.536Z,94983.84
2022-09-20T17:29:30.542Z,94982.50
2022-09-20T17:32:13.718Z,94983.06
2022-09-20T17:34:56.851Z,94987.13
2022-09-20T17:37:41.831Z,94992.59
2022-09-20T17:40:25.110Z,94989.06
2022-09-20T17:43:08.197Z,94996.34
2022-09-20T17:45:51.232Z,94988.97
2022-09-20T17:48:35.415Z,94987.94
2022-09-20T17:51:20.687Z,94997.78
2022-09-20T17:54:06.171Z,94989.53
2022-09-20T17:56:50.985Z,94997.44
2022-09-20T17:59:34.539Z,95005.16
2022-09-20T18:02:20.072Z,94997.69
2022-09-20T18:05:03.331Z,95002.31
2022-09-20T18:07:46.405Z,95003.81
2022-09-20T18:10:31.395Z,95000.16
2022-09-20T18:13:14.459Z,95010.47
2022-09-20T18:15:57.709Z,95011.03
2022-09-20T18:18:41.594Z,95010.22
2022-09-20T18:21:25.623Z,95021.22
2022-09-20T18:24:10.121Z,95017.94
2022-09-20T18:26:54.656Z,95019.84
2022-09-20T18:29:37.675Z,95025.66
2022-09-20T18:32:20.652Z,95028.47
2022-09-20T18:35:03.746Z,95036.84
2022-09-20T18:37:47.258Z,95028.25
2022-09-20T18:40:30.344Z,95028.13
2022-09-20T18:43:14.796Z,95031.59
2022-09-20T18:45:58.136Z,95034.94
2022-09-20T18:48:41.472Z,95026.28
2022-09-20T18:51:28.791Z,95024.66
2022-09-20T18:54:13.237Z,95034.25
2022-09-20T18:56:56.783Z,95031.19
2022-09-20T18:59:53.397Z,95035.03
2022-09-20T19:02:57.354Z,95033.75
2022-09-20T19:05:44.734Z,95031.50
2022-09-20T19:08:35.303Z,95026.59
2022-09-20T19:11:27.786Z,95038.88
2022-09-20T19:14:23.216Z,95029.47
2022-09-20T19:17:12.120Z,95028.06
2022-09-20T19:20:03.372Z,95032.25
2022-09-20T19:23:05.548Z,95037.72
2022-09-20T19:25:48.904Z,95031.81
2022-09-20T19:28:32.569Z,95032.00
2022-09-20T19:31:23.382Z,95034.13
2022-09-20T19:34:17.532Z,95036.66
2022-09-20T19:37:18.812Z,95039.88
2022-09-20T19:40:21.571Z,95039.19
2022-09-20T19:43:23.731Z,95035.13
2022-09-20T19:46:20.454Z,95032.53
2022-09-20T19:49:14.347Z,95039.06
2022-09-20T19:51:57.931Z,95034.00
2022-09-20T19:54:46.310Z,95038.03
2022-09-20T19:57:37.385Z,95044.94
2022-09-20T20:00:22.227Z,95046.94
2022-09-20T20:03:05.873Z,95048.53
2022-09-20T20:05:58.574Z,95051.13
2022-09-20T20:08:48.830Z,95057.56
2022-09-20T20:11:43.664Z,95055.84
2022-09-20T20:14:35.629Z,95052.88
2022-09-20T20:17:33.888Z,95050.53
2022-09-20T20:20:24.168Z,95051.72
2022-09-20T20:23:44.390Z,95054.72
2022-09-20T20:26:28.070Z,95057.69
2022-09-20T20:29:11.966Z,95060.13
2022-09-20T20:31:55.074Z,95062.69
2022-09-20T20:34:38.088Z,95061.31
2022-09-20T20:37:24.050Z,95060.13
2022-09-20T20:40:12.299Z,95064.06
2022-09-20T20:43:02.085Z,95066.91
2022-09-20T20:45:51.006Z,95059.97
2022-09-20T20:48:34.819Z,95062.72
2022-09-20T20:51:19.741Z,95062.13
2022-09-20T20:54:04.880Z,95062.13
2022-09-20T20:56:49.381Z,95068.13
2022-09-20T20:59:32.401Z,95060.53
2022-09-20T21:02:15.443Z,95066.13
2022-09-20T21:04:58.818Z,95065.38
2022-09-20T21:07:41.800Z,95062.59
2022-09-20T21:10:24.962Z,95067.41
2022-09-20T21:13:09.363Z,95063.00
2022-09-20T21:15:52.699Z,95067.19
2022-09-20T21:18:36.402Z,95067.41
2022-09-20T21:21:21.542Z,95074.59
2022-09-20T21:24:06.804Z,95071.44
2022-09-20T21:26:49.822Z,95071.03
2022-09-20T21:29:34.288Z,95067.84
2022-09-20T21:32:17.264Z,95066.06
2022-09-20T21:35:00.543Z,95067.44
2022-09-20T21:37:45.857Z,95063.88
2022-09-20T21:40:30.807Z,95063.25
2022-09-20T21:43:14.068Z,95061.69
2022-09-20T21:45:58.895Z,95068.28
2022-09-20T21:48:42.466Z,95063.31
2022-09-20T21:51:29.855Z,95070.50
2022-09-20T21:54:13.169Z,95057.59
2022-09-20T21:56:59.324Z,95072.28
2022-09-20T21:59:42.556Z,95071.13
2022-09-20T22:02:27.093Z,95070.72
2022-09-20T22:05:11.534Z,95071.13
2022-09-20T22:07:56.470Z,95063.97
2022-09-20T22:10:39.476Z,95060.56
2022-09-20T22:13:22.538Z,95062.75
2022-09-20T22:16:07.309Z,95056.38
2022-09-20T22:18:52.196Z,95062.97
2022-09-20T22:21:37.732Z,95073.72
2022-09-20T22:24:20.949Z,95061.97
2022-09-20T22:27:04.071Z,95074.69
2022-09-20T22:29:47.167Z,95071.72
2022-09-20T22:32:30.350Z,95061.16
2022-09-20T22:35:14.843Z,95073.13
2022-09-20T22:37:58.748Z,95075.09
2022-09-20T22:40:41.764Z,95069.13
2022-09-20T22:43:25.053Z,95077.06
2022-09-20T22:46:09.610Z,95079.88
2022-09-20T22:48:52.703Z,95076.28
2022-09-20T22:51:37.790Z,95070.72
2022-09-20T22:54:20.824Z,95076.69
2022-09-20T22:57:03.806Z,95075.50
2022-09-20T22:59:46.773Z,95077.09
2022-09-20T23:02:29.795Z,95083.25
2022-09-20T23:05:12.754Z,95083.25
2022-09-20T23:07:57.124Z,95079.28
2022-09-20T23:10:40.116Z,95071.13
2022-09-20T23:13:23.174Z,95075.31
2022-09-20T23:16:14.021Z,95075.91
2022-09-20T23:18:58.349Z,95067.94
2022-09-20T23:21:43.085Z,95069.53
2022-09-20T23:24:27.456Z,95079.47
2022-09-20T23:27:10.886Z,95068.91
2022-09-20T23:29:53.899Z,95072.72
2022-09-20T23:32:36.964Z,95071.13
2022-09-20T23:35:20.089Z,95066.34
2022-09-20T23:38:03.121Z,95075.31
2022-09-20T23:40:47.524Z,95054.59
2022-09-20T23:43:30.519Z,95059.19
2022-09-20T23:46:14.960Z,95061.16
2022-09-20T23:48:57.980Z,95066.75
2022-09-20T23:51:40.941Z,95062.53
2022-09-20T23:54:23.898Z,95060.38
2022-09-20T23:57:08.391Z,95069.88
2022-09-20T23:59:52.433Z,95067.09
